Time;durP1;ratioP1;P1;durP2;ratioP2;P2;SDS_P1;SDS_P2;PMS_P1;PMS_P2;Temp;Humidity;BMP_temperature;BMP_pressure;BME280_temperature;BME280_humidity;BME280_pressure;Samples;Min_cycle;Max_cycle;Signal;HPM_P1;HPM_P2
2024/04/26 00:01:28;;;;;;;;;;;;;;;;;;5474403;26;19935;-64
2024/04/26 00:03:54;;;;;;;;;;;;;;;;;;5481278;26;20019;-64
2024/04/26 00:06:20;;;;;;;;;;;;;;;;;;5469851;26;19927;-63
2024/04/26 00:08:46;;;;;;;;;;;;;;;;;;5485005;26;19938;-62
2024/04/26 00:11:12;;;;;;;;;;;;;;;;;;5451453;26;20367;-61
2024/04/26 00:13:37;;;;;;;;;;;;;;;;;;5490080;26;19931;-64
2024/04/26 00:16:03;;;;;;;;;;;;;;;;;;5484681;26;19983;-63
2024/04/26 00:18:32;;;;;;;;;;;;;;;;;;5482038;26;20273;-63
2024/04/26 00:21:00;;;;;;;;;;;;;;;;;;5495139;26;19928;-63
2024/04/26 00:23:26;;;;;;;;;;;;;;;;;;5482273;26;19992;-63
2024/04/26 00:25:52;;;;;;;;;;;;;;;;;;5480143;26;19928;-64
2024/04/26 00:28:17;;;;;;;;;;;;;;;;;;5482191;26;19931;-64
2024/04/26 00:30:43;;;;;;;;;;;;;;;;;;5495687;26;20615;-63
2024/04/26 00:33:09;;;;;;;;;;;;;;;;;;5489784;26;19928;-63
2024/04/26 00:35:35;;;;;;;;;;;;;;;;;;5490973;26;19929;-63
2024/04/26 00:38:01;;;;;;;;;;;;;;;;;;5478468;26;19941;-64
2024/04/26 00:40:27;;;;;;;;;;;;;;;;;;5489030;26;20437;-64
2024/04/26 00:42:53;;;;;;;;;;;;;;;;;;5483676;26;19928;-63
2024/04/26 00:45:18;;;;;;;;;;;;;;;;;;5495424;26;19928;-62
2024/04/26 00:47:44;;;;;;;;;;;;;;;;;;5478054;26;19944;-64
2024/04/26 00:50:10;;;;;;;;;;;;;;;;;;5474233;26;20303;-64
2024/04/26 00:52:36;;;;;;;;;;;;;;;;;;5488288;26;20022;-64
2024/04/26 00:55:02;;;;;;;;;;;;;;;;;;5485439;26;20001;-61
2024/04/26 00:57:28;;;;;;;;;;;;;;;;;;5487725;26;19935;-64
2024/04/26 00:59:54;;;;;;;;;;;;;;;;;;5496121;26;20011;-63
2024/04/26 01:02:19;;;;;;;;;;;;;;;;;;5484993;26;19935;-63
2024/04/26 01:04:45;;;;;;;;;;;;;;;;;;5482782;26;19935;-64
2024/04/26 01:07:11;;;;;;;;;;;;;;;;;;5489623;26;20369;-64
2024/04/26 01:09:37;;;;;;;;;;;;;;;;;;5501883;26;19928;-63
2024/04/26 01:12:03;;;;;;;;;;;;;;;;;;5488203;26;19928;-63
2024/04/26 01:14:30;;;;;;;;;;;;;;;;;;5494647;26;20404;-64
2024/04/26 01:16:56;;;;;;;;;;;;;;;;;;5477794;26;19928;-64
2024/04/26 01:19:22;;;;;;;;;;;;;;;;;;5489916;26;19935;-64
2024/04/26 01:21:48;;;;;;;;;;;;;;;;;;5498762;26;20000;-64
2024/04/26 01:24:14;;;;;;;;;;;;;;;;;;5483147;26;19928;-64
2024/04/26 01:26:41;;;;;;;;;;;;;;;;;;5479968;26;19927;-64
2024/04/26 01:29:10;;;;;;;;;;;;;;;;;;5484404;26;19978;-64
2024/04/26 01:31:36;;;;;;;;;;;;;;;;;;5479021;26;20032;-64
2024/04/26 01:34:02;;;;;;;;;;;;;;;;;;5483399;26;20440;-63
2024/04/26 01:36:27;;;;;;;;;;;;;;;;;;5480701;26;20001;-64
2024/04/26 01:38:53;;;;;;;;;;;;;;;;;;5487688;26;19928;-64
2024/04/26 01:41:19;;;;;;;;;;;;;;;;;;5485868;26;20373;-64
2024/04/26 01:43:45;;;;;;;;;;;;;;;;;;5485964;26;19928;-64
2024/04/26 01:46:11;;;;;;;;;;;;;;;;;;5479347;26;19928;-63
2024/04/26 01:48:37;;;;;;;;;;;;;;;;;;5486099;26;19943;-64
2024/04/26 01:51:02;;;;;;;;;;;;;;;;;;5483332;26;20401;-64
2024/04/26 01:53:28;;;;;;;;;;;;;;;;;;5486937;26;19928;-64
2024/04/26 01:55:54;;;;;;;;;;;;;;;;;;5483271;26;19929;-64
2024/04/26 01:58:20;;;;;;;;;;;;;;;;;;5482417;26;20059;-64
2024/04/26 02:00:46;;;;;;;;;;;;;;;;;;5489070;26;20047;-64
2024/04/26 02:03:12;;;;;;;;;;;;;;;;;;5476543;26;19935;-64
2024/04/26 02:05:38;;;;;;;;;;;;;;;;;;5497088;26;19972;-64
2024/04/26 02:08:03;;;;;;;;;;;;;;;;;;5481145;26;19950;-64
2024/04/26 02:10:29;;;;;;;;;;;;;;;;;;5478792;26;19979;-63
2024/04/26 02:12:55;;;;;;;;;;;;;;;;;;5484969;26;20051;-64
2024/04/26 02:15:21;;;;;;;;;;;;;;;;;;5479580;26;20063;-64
2024/04/26 02:17:47;;;;;;;;;;;;;;;;;;5475017;26;19940;-63
2024/04/26 02:20:13;;;;;;;;;;;;;;;;;;5482993;26;20036;-64
2024/04/26 02:22:39;;;;;;;;;;;;;;;;;;5481276;26;20346;-64
2024/04/26 02:25:05;;;;;;;;;;;;;;;;;;5474900;26;19954;-63
2024/04/26 02:27:30;;;;;;;;;;;;;;;;;;5477362;26;19928;-64
2024/04/26 02:29:56;;;;;;;;;;;;;;;;;;5440452;26;20219;-64
2024/04/26 02:32:22;;;;;;;;;;;;;;;;;;5483553;26;19935;-63
2024/04/26 02:34:48;;;;;;;;;;;;;;;;;;5477567;26;19958;-64
2024/04/26 02:37:14;;;;;;;;;;;;;;;;;;5482184;26;20050;-64
2024/04/26 02:39:40;;;;;;;;;;;;;;;;;;5485468;26;20278;-63
2024/04/26 02:42:05;;;;;;;;;;;;;;;;;;5482497;26;19940;-64
2024/04/26 02:44:31;;;;;;;;;;;;;;;;;;5480293;26;20582;-64
2024/04/26 02:46:57;;;;;;;;;;;;;;;;;;5470718;26;20067;-64
2024/04/26 02:49:23;;;;;;;;;;;;;;;;;;5469157;26;20060;-63
2024/04/26 02:51:49;;;;;;;;;;;;;;;;;;5486182;26;20390;-64
2024/04/26 02:54:15;;;;;;;;;;;;;;;;;;5477341;26;19996;-64
2024/04/26 02:56:41;;;;;;;;;;;;;;;;;;5470943;26;20072;-64
2024/04/26 02:59:06;;;;;;;;;;;;;;;;;;5481289;26;20365;-64
2024/04/26 03:01:32;;;;;;;;;;;;;;;;;;5484464;26;19932;-64
2024/04/26 03:03:58;;;;;;;;;;;;;;;;;;5483689;26;19928;-64
2024/04/26 03:06:24;;;;;;;;;;;;;;;;;;5480586;26;20111;-64
2024/04/26 03:08:50;;;;;;;;;;;;;;;;;;5473639;26;20060;-64
2024/04/26 03:11:16;;;;;;;;;;;;;;;;;;5470401;26;19940;-64
2024/04/26 03:13:42;;;;;;;;;;;;;;;;;;5482480;26;19935;-64
2024/04/26 03:16:08;;;;;;;;;;;;;;;;;;5482644;26;19928;-64
2024/04/26 03:18:34;;;;;;;;;;;;;;;;;;5489410;26;19962;-64
2024/04/26 03:21:00;;;;;;;;;;;;;;;;;;5478973;26;19928;-64
2024/04/26 03:23:25;;;;;;;;;;;;;;;;;;5479740;26;20616;-64
2024/04/26 03:25:51;;;;;;;;;;;;;;;;;;5478023;26;19928;-64
2024/04/26 03:28:17;;;;;;;;;;;;;;;;;;5470404;26;19928;-64
2024/04/26 03:30:44;;;;;;;;;;;;;;;;;;5480369;26;19932;-63
2024/04/26 03:33:10;;;;;;;;;;;;;;;;;;5478103;26;20374;-64
2024/04/26 03:35:36;;;;;;;;;;;;;;;;;;5475872;26;19935;-64
2024/04/26 03:38:02;;;;;;;;;;;;;;;;;;5466942;26;19935;-64
2024/04/26 03:40:29;;;;;;;;;;;;;;;;;;5436505;26;19942;-63
2024/04/26 03:42:55;;;;;;;;;;;;;;;;;;5474692;26;20565;-64
2024/04/26 03:45:20;;;;;;;;;;;;;;;;;;5468196;26;19936;-64
2024/04/26 03:47:46;;;;;;;;;;;;;;;;;;5472637;26;20270;-64
2024/04/26 03:50:13;;;;;;;;;;;;;;;;;;5478526;26;19928;-64
2024/04/26 03:52:39;;;;;;;;;;;;;;;;;;5481484;26;19996;-64
2024/04/26 03:55:05;;;;;;;;;;;;;;;;;;5481571;26;19936;-64
2024/04/26 03:57:31;;;;;;;;;;;;;;;;;;5472798;26;19935;-64
2024/04/26 03:59:57;;;;;;;;;;;;;;;;;;5477434;26;19935;-64
2024/04/26 04:02:22;;;;;;;;;;;;;;;;;;5475026;26;20273;-64
2024/04/26 04:04:48;;;;;;;;;;;;;;;;;;5465222;26;19940;-63
2024/04/26 04:07:14;;;;;;;;;;;;;;;;;;5484049;26;19928;-63
2024/04/26 04:09:40;;;;;;;;;;;;;;;;;;5480871;26;19931;-64
2024/04/26 04:12:06;;;;;;;;;;;;;;;;;;5480419;26;20032;-64
2024/04/26 04:14:32;;;;;;;;;;;;;;;;;;5468384;26;20366;-64
2024/04/26 04:16:58;;;;;;;;;;;;;;;;;;5446734;26;19959;-63
2024/04/26 04:19:24;;;;;;;;;;;;;;;;;;5471234;26;19928;-64
2024/04/26 04:21:49;;;;;;;;;;;;;;;;;;5470163;26;20302;-64
2024/04/26 04:24:15;;;;;;;;;;;;;;;;;;5448929;26;19935;-64
2024/04/26 04:26:41;;;;;;;;;;;;;;;;;;5469689;26;19948;-64
2024/04/26 04:29:08;;;;;;;;;;;;;;;;;;5473231;26;19943;-63
2024/04/26 04:31:34;;;;;;;;;;;;;;;;;;5478599;26;19935;-64
2024/04/26 04:33:59;;;;;;;;;;;;;;;;;;5477344;26;19956;-64
2024/04/26 04:36:25;;;;;;;;;;;;;;;;;;5478215;26;19927;-64
2024/04/26 04:38:51;;;;;;;;;;;;;;;;;;5480763;26;20407;-64
2024/04/26 04:41:17;;;;;;;;;;;;;;;;;;5473619;26;19936;-64
2024/04/26 04:43:43;;;;;;;;;;;;;;;;;;5485514;26;20116;-65
2024/04/26 04:46:09;;;;;;;;;;;;;;;;;;5478638;26;19936;-64
2024/04/26 04:48:35;;;;;;;;;;;;;;;;;;5472450;26;19940;-64
2024/04/26 04:51:01;;;;;;;;;;;;;;;;;;5473372;26;19927;-64
2024/04/26 04:53:26;;;;;;;;;;;;;;;;;;5472685;26;19935;-64
2024/04/26 04:55:52;;;;;;;;;;;;;;;;;;5467260;26;21395;-64
2024/04/26 04:58:18;;;;;;;;;;;;;;;;;;5475379;26;19937;-64
2024/04/26 05:00:44;;;;;;;;;;;;;;;;;;5477242;26;19939;-64
2024/04/26 05:03:10;;;;;;;;;;;;;;;;;;5474689;26;19997;-64
2024/04/26 05:05:36;;;;;;;;;;;;;;;;;;5474471;26;20521;-64
2024/04/26 05:08:02;;;;;;;;;;;;;;;;;;5479209;26;19927;-63
2024/04/26 05:10:27;;;;;;;;;;;;;;;;;;5487691;26;19964;-64
2024/04/26 05:12:54;;;;;;;;;;;;;;;;;;5485261;26;19942;-64
2024/04/26 05:15:20;;;;;;;;;;;;;;;;;;5480696;26;20372;-65
2024/04/26 05:17:47;;;;;;;;;;;;;;;;;;5475290;26;20005;-64
2024/04/26 05:20:13;;;;;;;;;;;;;;;;;;5476336;26;19940;-63
2024/04/26 05:22:39;;;;;;;;;;;;;;;;;;5465171;26;19928;-64
2024/04/26 05:25:05;;;;;;;;;;;;;;;;;;5486669;26;19928;-64
2024/04/26 05:27:31;;;;;;;;;;;;;;;;;;5483619;26;19939;-64
2024/04/26 05:29:57;;;;;;;;;;;;;;;;;;5486385;26;19934;-64
2024/04/26 05:32:23;;;;;;;;;;;;;;;;;;5470706;26;19939;-64
2024/04/26 05:34:48;;;;;;;;;;;;;;;;;;5475515;26;19928;-64
2024/04/26 05:37:14;;;;;;;;;;;;;;;;;;5483282;26;19936;-65
2024/04/26 05:39:40;;;;;;;;;;;;;;;;;;5485291;26;19928;-64
2024/04/26 05:42:06;;;;;;;;;;;;;;;;;;5481851;26;19928;-64
2024/04/26 05:44:32;;;;;;;;;;;;;;;;;;5479719;26;19939;-64
2024/04/26 05:46:58;;;;;;;;;;;;;;;;;;5479267;26;19935;-64
2024/04/26 05:49:24;;;;;;;;;;;;;;;;;;5486232;26;20266;-64
2024/04/26 05:51:50;;;;;;;;;;;;;;;;;;5477704;26;19940;-64
2024/04/26 05:54:15;;;;;;;;;;;;;;;;;;5477650;26;19939;-64
2024/04/26 05:56:41;;;;;;;;;;;;;;;;;;5480909;26;19935;-64
2024/04/26 05:59:09;;;;;;;;;;;;;;;;;;5476047;26;21331;-64
2024/04/26 06:01:35;;;;;;;;;;;;;;;;;;5470257;26;19928;-64
2024/04/26 06:04:01;;;;;;;;;;;;;;;;;;5484415;26;19928;-64
2024/04/26 06:06:26;;;;;;;;;;;;;;;;;;5476246;26;19993;-64
2024/04/26 06:08:52;;;;;;;;;;;;;;;;;;5482053;26;19947;-64
2024/04/26 06:11:18;;;;;;;;;;;;;;;;;;5471648;26;20378;-64
2024/04/26 06:13:44;;;;;;;;;;;;;;;;;;5474083;26;19928;-63
2024/04/26 06:16:10;;;;;;;;;;;;;;;;;;5478224;26;19943;-64
2024/04/26 06:18:36;;;;;;;;;;;;;;;;;;5468651;26;19939;-62
2024/04/26 06:21:02;;;;;;;;;;;;;;;;;;5474723;26;20030;-64
2024/04/26 06:23:28;;;;;;;;;;;;;;;;;;5467872;26;19929;-62
2024/04/26 06:25:53;;;;;;;;;;;;;;;;;;5477354;26;19939;-62
2024/04/26 06:28:19;;;;;;;;;;;;;;;;;;5475654;26;19964;-63
2024/04/26 06:30:45;;;;;;;;;;;;;;;;;;5476751;26;19928;-64
2024/04/26 06:33:11;;;;;;;;;;;;;;;;;;5475753;26;19928;-63
2024/04/26 06:35:43;;;;;;;;;;;;;;;;;;5463993;26;19932;-60
2024/04/26 06:38:10;;;;;;;;;;;;;;;;;;5475452;26;19943;-59
2024/04/26 06:40:38;;;;;;;;;;;;;;;;;;5483302;26;20373;-60
2024/04/26 06:43:04;;;;;;;;;;;;;;;;;;5480268;26;19934;-62
2024/04/26 06:45:30;;;;;;;;;;;;;;;;;;5484048;26;20420;-60
2024/04/26 06:47:56;;;;;;;;;;;;;;;;;;5469505;26;19928;-61
2024/04/26 06:50:21;;;;;;;;;;;;;;;;;;5480762;26;19937;-61
2024/04/26 06:52:47;;;;;;;;;;;;;;;;;;5481300;26;19935;-59
2024/04/26 06:55:13;;;;;;;;;;;;;;;;;;5471350;26;20469;-60
2024/04/26 06:57:39;;;;;;;;;;;;;;;;;;5476194;26;19928;-62
2024/04/26 07:00:05;;;;;;;;;;;;;;;;;;5465845;26;19928;-61
2024/04/26 07:02:31;;;;;;;;;;;;;;;;;;5467023;26;19928;-61
2024/04/26 07:04:57;;;;;;;;;;;;;;;;;;5467878;26;20235;-61
2024/04/26 07:07:22;;;;;;;;;;;;;;;;;;5465703;26;19956;-61
2024/04/26 07:09:48;;;;;;;;;;;;;;;;;;5485846;26;19928;-60
2024/04/26 07:12:14;;;;;;;;;;;;;;;;;;5472357;26;19928;-60
2024/04/26 07:14:40;;;;;;;;;;;;;;;;;;5476234;26;19929;-60
2024/04/26 07:17:06;;;;;;;;;;;;;;;;;;5470010;26;20330;-59
2024/04/26 07:19:36;;;;;;;;;;;;;;;;;;5457683;26;19940;-61
2024/04/26 07:22:02;;;;;;;;;;;;;;;;;;5473906;26;20269;-61
2024/04/26 07:24:28;;;;;;;;;;;;;;;;;;5460530;26;20274;-60
2024/04/26 07:26:54;;;;;;;;;;;;;;;;;;5476468;26;20389;-62
2024/04/26 07:29:20;;;;;;;;;;;;;;;;;;5474966;26;19936;-61
2024/04/26 07:31:46;;;;;;;;;;;;;;;;;;5471768;26;19928;-61
2024/04/26 07:34:12;;;;;;;;;;;;;;;;;;5475548;26;20025;-62
2024/04/26 07:36:38;;;;;;;;;;;;;;;;;;5469451;26;19934;-61
2024/04/26 07:39:04;;;;;;;;;;;;;;;;;;5481746;26;19927;-61
2024/04/26 07:41:29;;;;;;;;;;;;;;;;;;5475328;26;19929;-62
2024/04/26 07:43:55;;;;;;;;;;;;;;;;;;5471991;26;19940;-62
2024/04/26 07:46:21;;;;;;;;;;;;;;;;;;5470050;26;19947;-60
2024/04/26 07:48:47;;;;;;;;;;;;;;;;;;5475028;26;19928;-60
2024/04/26 07:51:13;;;;;;;;;;;;;;;;;;5479302;26;19935;-60
2024/04/26 07:53:39;;;;;;;;;;;;;;;;;;5473281;26;19927;-60
2024/04/26 07:56:05;;;;;;;;;;;;;;;;;;5476130;26;20331;-60
2024/04/26 07:58:31;;;;;;;;;;;;;;;;;;5464150;26;19929;-62
2024/04/26 08:00:56;;;;;;;;;;;;;;;;;;5473487;26;19936;-61
2024/04/26 08:03:22;;;;;;;;;;;;;;;;;;5460476;26;20382;-61
2024/04/26 08:05:48;;;;;;;;;;;;;;;;;;5468527;26;19936;-62
2024/04/26 08:08:16;;;;;;;;;;;;;;;;;;5468679;26;19939;-62
2024/04/26 08:10:42;;;;;;;;;;;;;;;;;;5465015;26;20002;-62
2024/04/26 08:13:08;;;;;;;;;;;;;;;;;;5462083;26;20389;-62
2024/04/26 08:15:34;;;;;;;;;;;;;;;;;;5479108;26;19928;-61
2024/04/26 08:17:59;;;;;;;;;;;;;;;;;;5462127;26;19928;-60
2024/04/26 08:20:25;;;;;;;;;;;;;;;;;;5478178;26;19928;-62
2024/04/26 08:22:51;;;;;;;;;;;;;;;;;;5467500;26;19928;-62
2024/04/26 08:25:17;;;;;;;;;;;;;;;;;;5472251;26;19936;-62
2024/04/26 08:27:43;;;;;;;;;;;;;;;;;;5464492;26;19935;-62
2024/04/26 08:30:09;;;;;;;;;;;;;;;;;;5461600;26;19947;-62
2024/04/26 08:32:35;;;;;;;;;;;;;;;;;;5467444;26;19928;-59
2024/04/26 08:35:00;;;;;;;;;;;;;;;;;;5481321;26;19929;-62
2024/04/26 08:37:27;;;;;;;;;;;;;;;;;;5465223;26;19958;-62
2024/04/26 08:39:53;;;;;;;;;;;;;;;;;;5469973;26;20508;-61
2024/04/26 08:42:19;;;;;;;;;;;;;;;;;;5488085;26;19936;-62
2024/04/26 08:44:45;;;;;;;;;;;;;;;;;;5471686;26;19996;-61
2024/04/26 08:47:10;;;;;;;;;;;;;;;;;;5473748;26;19954;-61
2024/04/26 08:49:39;;;;;;;;;;;;;;;;;;5475812;26;20336;-61
2024/04/26 08:52:08;;;;;;;;;;;;;;;;;;5487662;26;19956;-61
2024/04/26 08:54:34;;;;;;;;;;;;;;;;;;5458961;26;19997;-61
2024/04/26 08:57:00;;;;;;;;;;;;;;;;;;5488336;26;19940;-61
2024/04/26 08:59:26;;;;;;;;;;;;;;;;;;5487721;26;20018;-62
2024/04/26 09:01:52;;;;;;;;;;;;;;;;;;5466843;26;19936;-61
2024/04/26 09:04:18;;;;;;;;;;;;;;;;;;5484488;26;19928;-60
2024/04/26 09:06:44;;;;;;;;;;;;;;;;;;5476331;26;19936;-61
2024/04/26 09:09:09;;;;;;;;;;;;;;;;;;5482366;26;20374;-59
2024/04/26 09:11:35;;;;;;;;;;;;;;;;;;5479653;26;19928;-60
2024/04/26 09:14:01;;;;;;;;;;;;;;;;;;5481410;26;20345;-61
2024/04/26 09:16:30;;;;;;;;;;;;;;;;;;5467821;26;19970;-60
2024/04/26 09:18:56;;;;;;;;;;;;;;;;;;5482683;26;19952;-62
2024/04/26 09:21:22;;;;;;;;;;;;;;;;;;5467330;26;19928;-59
2024/04/26 09:23:49;;;;;;;;;;;;;;;;;;5490507;26;20366;-60
2024/04/26 09:26:15;;;;;;;;;;;;;;;;;;5470522;26;19943;-61
2024/04/26 09:28:41;;;;;;;;;;;;;;;;;;5466869;26;19937;-61
2024/04/26 09:31:06;;;;;;;;;;;;;;;;;;5460458;26;19928;-61
2024/04/26 09:33:33;;;;;;;;;;;;;;;;;;5467117;26;19928;-62
2024/04/26 09:35:59;;;;;;;;;;;;;;;;;;5468196;26;20448;-60
2024/04/26 09:38:27;;;;;;;;;;;;;;;;;;5465467;26;19929;-60
2024/04/26 09:40:52;;;;;;;;;;;;;;;;;;5464511;26;20063;-60
2024/04/26 09:43:18;;;;;;;;;;;;;;;;;;5472180;26;19932;-61
2024/04/26 09:45:44;;;;;;;;;;;;;;;;;;5461016;26;19929;-61
2024/04/26 09:48:10;;;;;;;;;;;;;;;;;;5474318;26;20305;-61
2024/04/26 09:50:36;;;;;;;;;;;;;;;;;;5463275;26;19939;-61
2024/04/26 09:53:02;;;;;;;;;;;;;;;;;;5459619;26;19935;-61
2024/04/26 09:55:28;;;;;;;;;;;;;;;;;;5464858;26;19935;-61
2024/04/26 09:57:54;;;;;;;;;;;;;;;;;;5465277;26;19955;-60
2024/04/26 10:00:20;;;;;;;;;;;;;;;;;;5469687;26;19928;-61
2024/04/26 10:02:45;;;;;;;;;;;;;;;;;;5464373;26;19942;-57
2024/04/26 10:05:11;;;;;;;;;;;;;;;;;;5475818;26;19977;-60
2024/04/26 10:07:38;;;;;;;;;;;;;;;;;;5481830;26;19957;-60
2024/04/26 10:10:08;;;;;;;;;;;;;;;;;;5457580;26;19932;-60
2024/04/26 10:12:34;;;;;;;;;;;;;;;;;;5458254;26;19928;-60
2024/04/26 10:15:02;;;;;;;;;;;;;;;;;;5462361;26;19935;-59
2024/04/26 10:17:28;;;;;;;;;;;;;;;;;;5464605;26;19928;-61
2024/04/26 10:19:54;;;;;;;;;;;;;;;;;;5465232;26;19987;-61
2024/04/26 10:22:19;;;;;;;;;;;;;;;;;;5461456;26;19928;-61
2024/04/26 10:24:50;;;;;;;;;;;;;;;;;;5460818;26;19928;-61
2024/04/26 10:27:16;;;;;;;;;;;;;;;;;;5450122;26;20262;-59
2024/04/26 10:29:41;;;;;;;;;;;;;;;;;;5462504;26;19971;-60
2024/04/26 10:32:07;;;;;;;;;;;;;;;;;;5475722;26;20262;-60
2024/04/26 10:34:33;;;;;;;;;;;;;;;;;;5471374;26;19938;-61
2024/04/26 10:37:04;;;;;;;;;;;;;;;;;;5465480;26;19929;-58
2024/04/26 10:39:33;;;;;;;;;;;;;;;;;;5468885;26;21049;-59
2024/04/26 10:41:59;;;;;;;;;;;;;;;;;;5478355;26;19928;-60
2024/04/26 10:44:25;;;;;;;;;;;;;;;;;;5476067;26;20058;-60
2024/04/26 10:46:51;;;;;;;;;;;;;;;;;;5473396;26;19991;-60
2024/04/26 10:49:17;;;;;;;;;;;;;;;;;;5469323;26;19927;-61
2024/04/26 10:51:43;;;;;;;;;;;;;;;;;;5487057;26;19935;-60
2024/04/26 10:54:09;;;;;;;;;;;;;;;;;;5470288;26;20668;-59
2024/04/26 10:56:34;;;;;;;;;;;;;;;;;;5483800;26;19931;-58
2024/04/26 10:59:00;;;;;;;;;;;;;;;;;;5461800;26;19933;-59
2024/04/26 11:01:26;;;;;;;;;;;;;;;;;;5497420;26;20007;-61
2024/04/26 11:03:52;;;;;;;;;;;;;;;;;;5460491;26;19936;-60
2024/04/26 11:06:18;;;;;;;;;;;;;;;;;;5480901;26;20423;-60
2024/04/26 11:08:44;;;;;;;;;;;;;;;;;;5465575;26;19976;-60
2024/04/26 11:11:10;;;;;;;;;;;;;;;;;;5473615;26;20309;-59
2024/04/26 11:13:36;;;;;;;;;;;;;;;;;;5460876;26;19928;-58
2024/04/26 11:16:02;;;;;;;;;;;;;;;;;;5472899;26;19936;-59
2024/04/26 11:18:28;;;;;;;;;;;;;;;;;;5475098;26;19927;-59
2024/04/26 11:20:54;;;;;;;;;;;;;;;;;;5486926;26;20054;-61
2024/04/26 11:23:20;;;;;;;;;;;;;;;;;;5463255;26;20613;-59
2024/04/26 11:25:46;;;;;;;;;;;;;;;;;;5468309;26;19928;-57
2024/04/26 11:28:12;;;;;;;;;;;;;;;;;;5467567;26;19928;-57
2024/04/26 11:30:38;;;;;;;;;;;;;;;;;;5468835;26;20528;-60
2024/04/26 11:33:04;;;;;;;;;;;;;;;;;;5478347;26;19935;-59
2024/04/26 11:35:30;;;;;;;;;;;;;;;;;;5487201;26;20025;-60
2024/04/26 11:37:56;;;;;;;;;;;;;;;;;;5483807;26;19931;-59
2024/04/26 11:40:22;;;;;;;;;;;;;;;;;;5463229;26;20319;-59
2024/04/26 11:42:48;;;;;;;;;;;;;;;;;;5468938;26;19928;-61
2024/04/26 11:45:14;;;;;;;;;;;;;;;;;;5464127;26;19939;-58
2024/04/26 11:47:40;;;;;;;;;;;;;;;;;;5455896;26;19936;-57
2024/04/26 11:50:08;;;;;;;;;;;;;;;;;;5463265;26;19928;-59
2024/04/26 11:52:34;;;;;;;;;;;;;;;;;;5460287;26;19942;-60
2024/04/26 11:55:00;;;;;;;;;;;;;;;;;;5462311;26;19928;-60
2024/04/26 11:57:25;;;;;;;;;;;;;;;;;;5461639;26;19936;-57
2024/04/26 11:59:51;;;;;;;;;;;;;;;;;;5467060;26;19932;-59
2024/04/26 12:02:20;;;;;;;;;;;;;;;;;;5463755;26;19935;-59
2024/04/26 12:04:47;;;;;;;;;;;;;;;;;;5469571;26;19928;-58
2024/04/26 12:07:13;;;;;;;;;;;;;;;;;;5474099;26;19936;-60
2024/04/26 12:09:39;;;;;;;;;;;;;;;;;;5467339;26;19929;-61
2024/04/26 12:12:05;;;;;;;;;;;;;;;;;;5474230;26;19936;-60
2024/04/26 12:14:31;;;;;;;;;;;;;;;;;;5465509;26;19985;-59
2024/04/26 12:16:57;;;;;;;;;;;;;;;;;;5468868;26;19984;-59
2024/04/26 12:19:23;;;;;;;;;;;;;;;;;;5465040;26;20272;-60
2024/04/26 12:21:50;;;;;;;;;;;;;;;;;;5472750;26;19935;-60
2024/04/26 12:24:16;;;;;;;;;;;;;;;;;;5463959;26;19928;-59
2024/04/26 12:26:42;;;;;;;;;;;;;;;;;;5465575;26;20298;-60
2024/04/26 12:29:13;;;;;;;;;;;;;;;;;;5470598;26;19934;-61
2024/04/26 12:31:39;;;;;;;;;;;;;;;;;;5458513;26;20001;-59
2024/04/26 12:34:04;;;;;;;;;;;;;;;;;;5473291;26;19943;-58
2024/04/26 12:36:30;;;;;;;;;;;;;;;;;;5474491;26;20290;-61
2024/04/26 12:38:58;;;;;;;;;;;;;;;;;;5471714;26;19996;-59
2024/04/26 12:41:24;;;;;;;;;;;;;;;;;;5439753;26;19933;-59
2024/04/26 12:43:50;;;;;;;;;;;;;;;;;;5482377;26;19928;-61
2024/04/26 12:46:16;;;;;;;;;;;;;;;;;;5473489;26;20397;-61
2024/04/26 12:48:42;;;;;;;;;;;;;;;;;;5472125;26;19981;-61
2024/04/26 12:51:08;;;;;;;;;;;;;;;;;;5477474;26;19940;-61
2024/04/26 12:53:34;;;;;;;;;;;;;;;;;;5475616;26;19947;-60
2024/04/26 12:56:00;;;;;;;;;;;;;;;;;;5465574;26;19936;-60
2024/04/26 12:58:25;;;;;;;;;;;;;;;;;;5475009;26;19928;-59
2024/04/26 13:00:51;;;;;;;;;;;;;;;;;;5477177;26;20055;-57
2024/04/26 13:03:18;;;;;;;;;;;;;;;;;;5479033;26;20059;-60
2024/04/26 13:05:44;;;;;;;;;;;;;;;;;;5484402;26;19944;-60
2024/04/26 13:08:10;;;;;;;;;;;;;;;;;;5481845;26;19935;-60
2024/04/26 13:10:35;;;;;;;;;;;;;;;;;;5482152;26;19927;-61
2024/04/26 13:13:01;;;;;;;;;;;;;;;;;;5478449;26;19928;-61
2024/04/26 13:15:27;;;;;;;;;;;;;;;;;;5481563;26;20023;-61
2024/04/26 13:17:55;;;;;;;;;;;;;;;;;;5490997;26;20354;-61
2024/04/26 13:20:21;;;;;;;;;;;;;;;;;;5481476;26;19981;-61
2024/04/26 13:22:47;;;;;;;;;;;;;;;;;;5460458;26;19932;-60
2024/04/26 13:25:14;;;;;;;;;;;;;;;;;;5487920;26;19938;-61
2024/04/26 13:27:40;;;;;;;;;;;;;;;;;;5468536;26;19936;-61
2024/04/26 13:30:06;;;;;;;;;;;;;;;;;;5488486;26;19992;-60
2024/04/26 13:32:31;;;;;;;;;;;;;;;;;;5485904;26;19935;-60
2024/04/26 13:34:57;;;;;;;;;;;;;;;;;;5480859;26;19936;-61
2024/04/26 13:37:24;;;;;;;;;;;;;;;;;;5479540;26;19932;-60
2024/04/26 13:39:50;;;;;;;;;;;;;;;;;;5476247;26;19932;-61
2024/04/26 13:42:16;;;;;;;;;;;;;;;;;;5484946;26;20366;-60
2024/04/26 13:44:42;;;;;;;;;;;;;;;;;;5478770;26;19928;-60
2024/04/26 13:47:08;;;;;;;;;;;;;;;;;;5472999;26;19936;-59
2024/04/26 13:49:34;;;;;;;;;;;;;;;;;;5476455;26;19935;-60
2024/04/26 13:51:59;;;;;;;;;;;;;;;;;;5482453;26;20089;-60
2024/04/26 13:54:25;;;;;;;;;;;;;;;;;;5478780;26;19935;-59
2024/04/26 13:56:51;;;;;;;;;;;;;;;;;;5482588;26;19928;-60
2024/04/26 13:59:17;;;;;;;;;;;;;;;;;;5483269;26;19928;-59
2024/04/26 14:01:43;;;;;;;;;;;;;;;;;;5483603;26;19934;-59
2024/04/26 14:04:09;;;;;;;;;;;;;;;;;;5478545;26;19929;-60
2024/04/26 14:06:35;;;;;;;;;;;;;;;;;;5477125;26;19938;-59
2024/04/26 14:09:01;;;;;;;;;;;;;;;;;;5480963;26;19929;-60
2024/04/26 14:11:27;;;;;;;;;;;;;;;;;;5472654;26;19997;-64
2024/04/26 14:13:53;;;;;;;;;;;;;;;;;;5469358;26;19928;-63
2024/04/26 14:16:18;;;;;;;;;;;;;;;;;;5480643;26;19928;-64
2024/04/26 14:18:46;;;;;;;;;;;;;;;;;;5484927;26;19927;-64
2024/04/26 14:21:12;;;;;;;;;;;;;;;;;;5479854;26;19937;-64
2024/04/26 14:23:37;;;;;;;;;;;;;;;;;;5482203;26;19928;-64
2024/04/26 14:26:04;;;;;;;;;;;;;;;;;;5475378;26;19935;-63
2024/04/26 14:28:30;;;;;;;;;;;;;;;;;;5474030;26;19935;-64
2024/04/26 14:30:57;;;;;;;;;;;;;;;;;;5479575;26;19928;-64
2024/04/26 14:33:25;;;;;;;;;;;;;;;;;;5478107;26;19928;-64
2024/04/26 14:35:50;;;;;;;;;;;;;;;;;;5478262;26;19998;-64
2024/04/26 14:38:16;;;;;;;;;;;;;;;;;;5480916;26;19932;-65
2024/04/26 14:40:42;;;;;;;;;;;;;;;;;;5477192;26;20004;-64
2024/04/26 14:43:08;;;;;;;;;;;;;;;;;;5474892;26;19935;-64
2024/04/26 14:45:35;;;;;;;;;;;;;;;;;;5469910;26;19929;-64
2024/04/26 14:48:01;;;;;;;;;;;;;;;;;;5477668;26;20247;-64
2024/04/26 14:50:27;;;;;;;;;;;;;;;;;;5482894;26;19959;-64
2024/04/26 14:52:53;;;;;;;;;;;;;;;;;;5480823;26;19935;-64
2024/04/26 14:55:18;;;;;;;;;;;;;;;;;;5472711;26;20315;-64
2024/04/26 14:57:44;;;;;;;;;;;;;;;;;;5481297;26;19928;-64
2024/04/26 15:00:11;;;;;;;;;;;;;;;;;;5477123;26;19935;-64
2024/04/26 15:02:37;;;;;;;;;;;;;;;;;;5466308;26;20059;-63
2024/04/26 15:05:03;;;;;;;;;;;;;;;;;;5472070;26;19929;-64
2024/04/26 15:07:29;;;;;;;;;;;;;;;;;;5469828;26;19988;-64
2024/04/26 15:10:01;;;;;;;;;;;;;;;;;;5439886;26;19928;-63
2024/04/26 15:12:27;;;;;;;;;;;;;;;;;;5470565;26;19940;-63
2024/04/26 15:14:53;;;;;;;;;;;;;;;;;;5470679;26;19940;-64
2024/04/26 15:17:19;;;;;;;;;;;;;;;;;;5487616;26;19935;-64
2024/04/26 15:19:45;;;;;;;;;;;;;;;;;;5474503;26;19936;-64
2024/04/26 15:22:11;;;;;;;;;;;;;;;;;;5469830;26;20263;-64
2024/04/26 15:24:36;;;;;;;;;;;;;;;;;;5472627;26;19931;-64
2024/04/26 15:27:02;;;;;;;;;;;;;;;;;;5469383;26;19935;-64
2024/04/26 15:29:31;;;;;;;;;;;;;;;;;;5477630;26;20055;-63
2024/04/26 15:31:57;;;;;;;;;;;;;;;;;;5462703;26;19928;-64
2024/04/26 15:34:23;;;;;;;;;;;;;;;;;;5466622;26;19952;-65
2024/04/26 15:36:49;;;;;;;;;;;;;;;;;;5472209;26;19935;-64
2024/04/26 15:39:16;;;;;;;;;;;;;;;;;;5476882;26;19928;-64
2024/04/26 15:41:42;;;;;;;;;;;;;;;;;;5462833;26;19935;-64
2024/04/26 15:44:08;;;;;;;;;;;;;;;;;;5467688;26;19928;-64
2024/04/26 15:46:33;;;;;;;;;;;;;;;;;;5469555;26;20297;-64
2024/04/26 15:48:59;;;;;;;;;;;;;;;;;;5476900;26;19928;-64
2024/04/26 15:51:25;;;;;;;;;;;;;;;;;;5472646;26;19972;-64
2024/04/26 15:53:51;;;;;;;;;;;;;;;;;;5480001;26;19939;-64
2024/04/26 15:56:17;;;;;;;;;;;;;;;;;;5475474;26;19927;-64
2024/04/26 15:58:43;;;;;;;;;;;;;;;;;;5473358;26;19940;-64
2024/04/26 16:01:09;;;;;;;;;;;;;;;;;;5477706;26;19935;-63
2024/04/26 16:03:35;;;;;;;;;;;;;;;;;;5472097;26;20263;-64
2024/04/26 16:06:00;;;;;;;;;;;;;;;;;;5472394;26;19940;-64
2024/04/26 16:08:26;;;;;;;;;;;;;;;;;;5472390;26;19936;-64
2024/04/26 16:10:52;;;;;;;;;;;;;;;;;;5470490;26;19934;-63
2024/04/26 16:13:18;;;;;;;;;;;;;;;;;;5473008;26;19935;-64
2024/04/26 16:15:44;;;;;;;;;;;;;;;;;;5483543;26;21031;-64
2024/04/26 16:18:14;;;;;;;;;;;;;;;;;;5468352;26;19947;-65
2024/04/26 16:20:40;;;;;;;;;;;;;;;;;;5470781;26;20385;-64
2024/04/26 16:23:07;;;;;;;;;;;;;;;;;;5470362;26;19935;-63
2024/04/26 16:25:33;;;;;;;;;;;;;;;;;;5468984;26;20308;-63
2024/04/26 16:27:59;;;;;;;;;;;;;;;;;;5471672;26;20051;-64
2024/04/26 16:30:25;;;;;;;;;;;;;;;;;;5469427;26;19928;-64
2024/04/26 16:32:51;;;;;;;;;;;;;;;;;;5476106;26;20428;-65
2024/04/26 16:35:20;;;;;;;;;;;;;;;;;;5469558;26;19997;-64
2024/04/26 16:37:46;;;;;;;;;;;;;;;;;;5434533;26;19931;-65